sensor_id;sensor_type;location;lat;lon;timestamp;P1;durP1;ratioP1;P2;durP2;ratioP2
18653;SDS011;9456;47.824;16.228;2023-02-11T00:01:39;37.50;;;21.50;;
18653;SDS011;9456;47.824;16.228;2023-02-11T00:04:08;35.73;;;21.50;;
18653;SDS011;9456;47.824;16.228;2023-02-11T00:06:37;36.87;;;22.27;;
18653;SDS011;9456;47.824;16.228;2023-02-11T00:09:06;39.90;;;21.50;;
18653;SDS011;9456;47.824;16.228;2023-02-11T00:11:36;38.83;;;20.83;;
18653;SDS011;9456;47.824;16.228;2023-02-11T00:14:05;36.10;;;21.17;;
18653;SDS011;9456;47.824;16.228;2023-02-11T00:16:34;30.27;;;18.87;;
18653;SDS011;9456;47.824;16.228;2023-02-11T00:19:04;31.40;;;20.17;;
18653;SDS011;9456;47.824;16.228;2023-02-11T00:21:33;33.13;;;21.00;;
18653;SDS011;9456;47.824;16.228;2023-02-11T00:24:02;33.80;;;20.87;;
18653;SDS011;9456;47.824;16.228;2023-02-11T00:26:32;34.50;;;21.33;;
18653;SDS011;9456;47.824;16.228;2023-02-11T00:29:00;35.40;;;20.83;;
18653;SDS011;9456;47.824;16.228;2023-02-11T00:31:29;29.13;;;19.33;;
18653;SDS011;9456;47.824;16.228;2023-02-11T00:33:58;33.90;;;20.37;;
18653;SDS011;9456;47.824;16.228;2023-02-11T00:36:27;31.83;;;20.00;;
18653;SDS011;9456;47.824;16.228;2023-02-11T00:38:56;31.33;;;19.37;;
18653;SDS011;9456;47.824;16.228;2023-02-11T00:41:25;32.17;;;19.37;;
18653;SDS011;9456;47.824;16.228;2023-02-11T00:46:36;29.43;;;18.43;;
18653;SDS011;9456;47.824;16.228;2023-02-11T00:49:05;31.63;;;18.50;;
18653;SDS011;9456;47.824;16.228;2023-02-11T00:51:34;29.10;;;19.37;;
18653;SDS011;9456;47.824;16.228;2023-02-11T00:54:04;32.53;;;18.97;;
18653;SDS011;9456;47.824;16.228;2023-02-11T00:56:33;28.43;;;19.23;;
18653;SDS011;9456;47.824;16.228;2023-02-11T00:59:02;29.00;;;17.63;;
18653;SDS011;9456;47.824;16.228;2023-02-11T01:01:31;29.20;;;19.13;;
18653;SDS011;9456;47.824;16.228;2023-02-11T01:04:00;33.03;;;19.60;;
18653;SDS011;9456;47.824;16.228;2023-02-11T01:06:29;31.30;;;18.97;;
18653;SDS011;9456;47.824;16.228;2023-02-11T01:08:58;35.53;;;21.30;;
18653;SDS011;9456;47.824;16.228;2023-02-11T01:11:27;34.90;;;21.27;;
18653;SDS011;9456;47.824;16.228;2023-02-11T01:13:56;35.53;;;20.60;;
18653;SDS011;9456;47.824;16.228;2023-02-11T01:16:25;33.10;;;19.63;;
18653;SDS011;9456;47.824;16.228;2023-02-11T01:18:54;34.40;;;20.07;;
18653;SDS011;9456;47.824;16.228;2023-02-11T01:21:23;38.97;;;21.07;;
18653;SDS011;9456;47.824;16.228;2023-02-11T01:23:52;44.80;;;21.57;;
18653;SDS011;9456;47.824;16.228;2023-02-11T01:26:21;33.93;;;19.70;;
18653;SDS011;9456;47.824;16.228;2023-02-11T01:28:50;31.77;;;18.93;;
18653;SDS011;9456;47.824;16.228;2023-02-11T01:31:19;31.17;;;18.87;;
18653;SDS011;9456;47.824;16.228;2023-02-11T01:33:48;27.97;;;19.00;;
18653;SDS011;9456;47.824;16.228;2023-02-11T01:36:17;34.57;;;19.87;;
18653;SDS011;9456;47.824;16.228;2023-02-11T01:38:46;28.77;;;18.33;;
18653;SDS011;9456;47.824;16.228;2023-02-11T01:41:16;31.07;;;18.03;;
18653;SDS011;9456;47.824;16.228;2023-02-11T01:43:45;31.83;;;18.33;;
18653;SDS011;9456;47.824;16.228;2023-02-11T01:46:28;27.13;;;17.93;;
18653;SDS011;9456;47.824;16.228;2023-02-11T01:48:58;29.67;;;18.03;;
18653;SDS011;9456;47.824;16.228;2023-02-11T01:51:27;31.30;;;20.10;;
18653;SDS011;9456;47.824;16.228;2023-02-11T01:53:56;72.57;;;33.40;;
18653;SDS011;9456;47.824;16.228;2023-02-11T01:56:45;45.57;;;22.83;;
18653;SDS011;9456;47.824;16.228;2023-02-11T01:59:31;34.70;;;20.27;;
18653;SDS011;9456;47.824;16.228;2023-02-11T02:02:01;33.23;;;20.23;;
18653;SDS011;9456;47.824;16.228;2023-02-11T02:04:30;34.40;;;18.83;;
18653;SDS011;9456;47.824;16.228;2023-02-11T02:06:58;34.17;;;18.90;;
18653;SDS011;9456;47.824;16.228;2023-02-11T02:09:27;34.93;;;18.90;;
18653;SDS011;9456;47.824;16.228;2023-02-11T02:11:56;28.30;;;17.70;;
18653;SDS011;9456;47.824;16.228;2023-02-11T02:14:25;29.37;;;18.80;;
18653;SDS011;9456;47.824;16.228;2023-02-11T02:16:54;25.40;;;16.87;;
18653;SDS011;9456;47.824;16.228;2023-02-11T02:26:23;30.73;;;16.60;;
18653;SDS011;9456;47.824;16.228;2023-02-11T02:31:53;30.03;;;17.20;;
18653;SDS011;9456;47.824;16.228;2023-02-11T02:34:27;31.23;;;17.10;;
18653;SDS011;9456;47.824;16.228;2023-02-11T02:36:59;27.43;;;16.27;;
18653;SDS011;9456;47.824;16.228;2023-02-11T02:39:28;26.77;;;16.97;;
18653;SDS011;9456;47.824;16.228;2023-02-11T02:41:56;24.83;;;15.63;;
18653;SDS011;9456;47.824;16.228;2023-02-11T02:44:25;28.40;;;16.07;;
18653;SDS011;9456;47.824;16.228;2023-02-11T02:52:17;25.43;;;16.30;;
18653;SDS011;9456;47.824;16.228;2023-02-11T02:57:50;28.50;;;18.43;;
18653;SDS011;9456;47.824;16.228;2023-02-11T03:00:24;29.00;;;18.33;;
18653;SDS011;9456;47.824;16.228;2023-02-11T03:02:58;32.30;;;18.43;;
18653;SDS011;9456;47.824;16.228;2023-02-11T03:05:29;32.60;;;18.43;;
18653;SDS011;9456;47.824;16.228;2023-02-11T03:07:58;26.90;;;18.03;;
18653;SDS011;9456;47.824;16.228;2023-02-11T03:10:28;30.87;;;18.40;;
18653;SDS011;9456;47.824;16.228;2023-02-11T03:12:56;27.90;;;17.10;;
18653;SDS011;9456;47.824;16.228;2023-02-11T03:15:26;30.20;;;16.47;;
18653;SDS011;9456;47.824;16.228;2023-02-11T03:17:55;27.77;;;17.33;;
18653;SDS011;9456;47.824;16.228;2023-02-11T03:20:23;25.83;;;16.50;;
18653;SDS011;9456;47.824;16.228;2023-02-11T03:22:54;23.60;;;16.13;;
18653;SDS011;9456;47.824;16.228;2023-02-11T03:25:24;26.73;;;15.53;;
18653;SDS011;9456;47.824;16.228;2023-02-11T03:27:51;27.40;;;16.30;;
18653;SDS011;9456;47.824;16.228;2023-02-11T03:30:21;22.43;;;14.90;;
18653;SDS011;9456;47.824;16.228;2023-02-11T03:32:50;24.87;;;15.37;;
18653;SDS011;9456;47.824;16.228;2023-02-11T03:35:20;26.50;;;14.87;;
18653;SDS011;9456;47.824;16.228;2023-02-11T03:37:49;25.47;;;14.53;;
18653;SDS011;9456;47.824;16.228;2023-02-11T03:40:19;23.37;;;15.63;;
18653;SDS011;9456;47.824;16.228;2023-02-11T03:42:49;22.67;;;14.33;;
18653;SDS011;9456;47.824;16.228;2023-02-11T03:45:19;23.17;;;15.13;;
18653;SDS011;9456;47.824;16.228;2023-02-11T03:47:53;25.37;;;14.83;;
18653;SDS011;9456;47.824;16.228;2023-02-11T03:50:20;22.87;;;15.17;;
18653;SDS011;9456;47.824;16.228;2023-02-11T03:52:50;26.47;;;15.97;;
18653;SDS011;9456;47.824;16.228;2023-02-11T03:55:19;24.67;;;15.60;;
18653;SDS011;9456;47.824;16.228;2023-02-11T03:57:48;26.10;;;16.33;;
18653;SDS011;9456;47.824;16.228;2023-02-11T04:00:17;24.13;;;15.57;;
18653;SDS011;9456;47.824;16.228;2023-02-11T04:02:46;24.27;;;15.67;;
18653;SDS011;9456;47.824;16.228;2023-02-11T04:05:15;28.40;;;15.47;;
18653;SDS011;9456;47.824;16.228;2023-02-11T04:07:44;26.00;;;15.20;;
18653;SDS011;9456;47.824;16.228;2023-02-11T04:10:13;23.50;;;15.97;;
18653;SDS011;9456;47.824;16.228;2023-02-11T04:12:45;25.07;;;15.07;;
18653;SDS011;9456;47.824;16.228;2023-02-11T04:15:14;24.20;;;14.73;;
18653;SDS011;9456;47.824;16.228;2023-02-11T04:17:43;25.37;;;15.23;;
18653;SDS011;9456;47.824;16.228;2023-02-11T04:20:12;24.77;;;16.23;;
18653;SDS011;9456;47.824;16.228;2023-02-11T04:22:41;24.93;;;14.10;;
18653;SDS011;9456;47.824;16.228;2023-02-11T04:25:10;23.43;;;14.27;;
18653;SDS011;9456;47.824;16.228;2023-02-11T04:27:39;22.03;;;12.57;;
18653;SDS011;9456;47.824;16.228;2023-02-11T04:30:09;22.37;;;13.77;;
18653;SDS011;9456;47.824;16.228;2023-02-11T04:32:38;23.10;;;12.97;;
18653;SDS011;9456;47.824;16.228;2023-02-11T04:35:07;23.87;;;12.87;;
18653;SDS011;9456;47.824;16.228;2023-02-11T04:37:37;19.83;;;12.43;;
18653;SDS011;9456;47.824;16.228;2023-02-11T04:40:06;20.13;;;12.87;;
18653;SDS011;9456;47.824;16.228;2023-02-11T04:42:37;19.30;;;12.30;;
18653;SDS011;9456;47.824;16.228;2023-02-11T04:45:06;22.00;;;13.43;;
18653;SDS011;9456;47.824;16.228;2023-02-11T04:47:36;20.50;;;13.13;;
18653;SDS011;9456;47.824;16.228;2023-02-11T04:58:07;19.50;;;12.50;;
18653;SDS011;9456;47.824;16.228;2023-02-11T05:00:36;18.97;;;13.37;;
18653;SDS011;9456;47.824;16.228;2023-02-11T05:03:05;23.63;;;12.97;;
18653;SDS011;9456;47.824;16.228;2023-02-11T05:05:39;19.37;;;12.17;;
18653;SDS011;9456;47.824;16.228;2023-02-11T05:08:08;19.33;;;12.73;;
18653;SDS011;9456;47.824;16.228;2023-02-11T05:10:37;20.90;;;13.20;;
18653;SDS011;9456;47.824;16.228;2023-02-11T05:13:06;22.03;;;12.83;;
18653;SDS011;9456;47.824;16.228;2023-02-11T05:15:35;21.63;;;13.13;;
18653;SDS011;9456;47.824;16.228;2023-02-11T05:18:04;19.93;;;11.57;;
18653;SDS011;9456;47.824;16.228;2023-02-11T05:20:33;19.30;;;11.63;;
18653;SDS011;9456;47.824;16.228;2023-02-11T05:23:02;19.93;;;12.33;;
18653;SDS011;9456;47.824;16.228;2023-02-11T05:25:31;20.10;;;11.80;;
18653;SDS011;9456;47.824;16.228;2023-02-11T05:28:00;17.30;;;11.13;;
18653;SDS011;9456;47.824;16.228;2023-02-11T05:30:29;19.00;;;12.57;;
18653;SDS011;9456;47.824;16.228;2023-02-11T05:32:58;21.53;;;13.77;;
18653;SDS011;9456;47.824;16.228;2023-02-11T05:35:27;18.90;;;12.80;;
18653;SDS011;9456;47.824;16.228;2023-02-11T05:37:56;17.37;;;10.63;;
18653;SDS011;9456;47.824;16.228;2023-02-11T05:40:25;19.33;;;11.67;;
18653;SDS011;9456;47.824;16.228;2023-02-11T05:42:54;19.87;;;11.50;;
18653;SDS011;9456;47.824;16.228;2023-02-11T05:45:23;18.60;;;11.57;;
18653;SDS011;9456;47.824;16.228;2023-02-11T05:47:53;20.37;;;12.03;;
18653;SDS011;9456;47.824;16.228;2023-02-11T05:50:22;18.10;;;11.47;;
18653;SDS011;9456;47.824;16.228;2023-02-11T05:52:57;18.37;;;11.20;;
18653;SDS011;9456;47.824;16.228;2023-02-11T05:55:27;17.70;;;11.07;;
18653;SDS011;9456;47.824;16.228;2023-02-11T05:57:56;18.77;;;11.30;;
18653;SDS011;9456;47.824;16.228;2023-02-11T06:00:25;17.40;;;11.30;;
18653;SDS011;9456;47.824;16.228;2023-02-11T06:02:54;20.83;;;10.87;;
18653;SDS011;9456;47.824;16.228;2023-02-11T06:05:23;16.57;;;10.43;;
18653;SDS011;9456;47.824;16.228;2023-02-11T06:07:54;15.97;;;10.67;;
18653;SDS011;9456;47.824;16.228;2023-02-11T06:10:25;19.73;;;10.83;;
18653;SDS011;9456;47.824;16.228;2023-02-11T06:12:54;18.03;;;10.93;;
18653;SDS011;9456;47.824;16.228;2023-02-11T06:15:23;15.00;;;9.80;;
18653;SDS011;9456;47.824;16.228;2023-02-11T06:17:53;14.47;;;10.30;;
18653;SDS011;9456;47.824;16.228;2023-02-11T06:20:24;15.50;;;10.40;;
18653;SDS011;9456;47.824;16.228;2023-02-11T06:22:53;17.03;;;10.47;;
18653;SDS011;9456;47.824;16.228;2023-02-11T06:25:22;15.50;;;10.47;;
18653;SDS011;9456;47.824;16.228;2023-02-11T06:27:51;15.97;;;9.73;;
18653;SDS011;9456;47.824;16.228;2023-02-11T06:30:20;16.57;;;10.60;;
18653;SDS011;9456;47.824;16.228;2023-02-11T06:32:52;20.23;;;10.83;;
18653;SDS011;9456;47.824;16.228;2023-02-11T06:35:21;18.23;;;12.20;;
18653;SDS011;9456;47.824;16.228;2023-02-11T06:37:50;19.37;;;12.10;;
18653;SDS011;9456;47.824;16.228;2023-02-11T06:40:19;17.87;;;10.77;;
18653;SDS011;9456;47.824;16.228;2023-02-11T06:42:48;17.57;;;9.87;;
18653;SDS011;9456;47.824;16.228;2023-02-11T06:45:17;17.90;;;10.93;;
18653;SDS011;9456;47.824;16.228;2023-02-11T06:47:46;15.17;;;10.07;;
18653;SDS011;9456;47.824;16.228;2023-02-11T06:50:16;18.27;;;11.70;;
18653;SDS011;9456;47.824;16.228;2023-02-11T06:52:45;18.73;;;11.80;;
18653;SDS011;9456;47.824;16.228;2023-02-11T06:55:17;21.87;;;12.20;;
18653;SDS011;9456;47.824;16.228;2023-02-11T06:57:46;20.20;;;13.43;;
18653;SDS011;9456;47.824;16.228;2023-02-11T07:00:16;18.23;;;10.50;;
18653;SDS011;9456;47.824;16.228;2023-02-11T07:02:45;16.07;;;8.60;;
18653;SDS011;9456;47.824;16.228;2023-02-11T07:05:14;13.63;;;9.10;;
18653;SDS011;9456;47.824;16.228;2023-02-11T07:07:43;15.23;;;9.17;;
18653;SDS011;9456;47.824;16.228;2023-02-11T07:10:12;13.77;;;9.20;;
18653;SDS011;9456;47.824;16.228;2023-02-11T07:12:41;13.03;;;8.97;;
18653;SDS011;9456;47.824;16.228;2023-02-11T07:15:10;12.40;;;8.53;;
18653;SDS011;9456;47.824;16.228;2023-02-11T07:17:39;11.67;;;8.27;;
18653;SDS011;9456;47.824;16.228;2023-02-11T07:20:08;14.57;;;7.93;;
18653;SDS011;9456;47.824;16.228;2023-02-11T07:22:38;11.43;;;7.33;;
18653;SDS011;9456;47.824;16.228;2023-02-11T07:25:07;14.30;;;8.23;;
18653;SDS011;9456;47.824;16.228;2023-02-11T07:27:36;14.00;;;8.30;;
18653;SDS011;9456;47.824;16.228;2023-02-11T07:30:07;14.60;;;10.23;;
18653;SDS011;9456;47.824;16.228;2023-02-11T07:32:37;19.90;;;12.60;;
18653;SDS011;9456;47.824;16.228;2023-02-11T07:35:06;20.60;;;13.07;;
18653;SDS011;9456;47.824;16.228;2023-02-11T07:37:35;17.20;;;11.70;;
18653;SDS011;9456;47.824;16.228;2023-02-11T07:40:05;20.63;;;12.97;;
18653;SDS011;9456;47.824;16.228;2023-02-11T07:42:34;16.20;;;12.13;;
18653;SDS011;9456;47.824;16.228;2023-02-11T07:45:03;17.97;;;10.27;;
18653;SDS011;9456;47.824;16.228;2023-02-11T07:47:34;13.37;;;9.60;;
18653;SDS011;9456;47.824;16.228;2023-02-11T07:50:03;12.67;;;8.80;;
18653;SDS011;9456;47.824;16.228;2023-02-11T07:52:32;11.57;;;8.57;;
18653;SDS011;9456;47.824;16.228;2023-02-11T07:55:01;13.50;;;9.30;;
18653;SDS011;9456;47.824;16.228;2023-02-11T08:00:10;16.17;;;10.70;;
18653;SDS011;9456;47.824;16.228;2023-02-11T08:02:40;19.03;;;11.93;;
18653;SDS011;9456;47.824;16.228;2023-02-11T08:05:09;15.77;;;9.40;;
18653;SDS011;9456;47.824;16.228;2023-02-11T08:07:39;20.17;;;11.03;;
18653;SDS011;9456;47.824;16.228;2023-02-11T08:10:08;14.80;;;10.20;;
18653;SDS011;9456;47.824;16.228;2023-02-11T08:12:37;18.97;;;11.10;;
18653;SDS011;9456;47.824;16.228;2023-02-11T08:15:06;18.17;;;9.80;;
18653;SDS011;9456;47.824;16.228;2023-02-11T08:17:36;15.83;;;9.70;;
18653;SDS011;9456;47.824;16.228;2023-02-11T08:20:05;12.63;;;8.57;;
18653;SDS011;9456;47.824;16.228;2023-02-11T08:22:34;16.63;;;9.20;;
18653;SDS011;9456;47.824;16.228;2023-02-11T08:25:04;16.00;;;9.07;;
18653;SDS011;9456;47.824;16.228;2023-02-11T08:27:33;12.23;;;9.10;;
18653;SDS011;9456;47.824;16.228;2023-02-11T08:30:02;25.33;;;9.60;;
18653;SDS011;9456;47.824;16.228;2023-02-11T08:32:32;18.17;;;9.50;;
18653;SDS011;9456;47.824;16.228;2023-02-11T08:35:01;15.53;;;9.33;;
18653;SDS011;9456;47.824;16.228;2023-02-11T08:37:31;16.70;;;9.10;;
18653;SDS011;9456;47.824;16.228;2023-02-11T08:40:00;16.17;;;9.17;;
18653;SDS011;9456;47.824;16.228;2023-02-11T08:42:29;19.00;;;9.73;;
18653;SDS011;9456;47.824;16.228;2023-02-11T08:44:58;16.20;;;8.93;;
18653;SDS011;9456;47.824;16.228;2023-02-11T08:47:27;14.70;;;8.97;;
18653;SDS011;9456;47.824;16.228;2023-02-11T08:49:56;21.93;;;10.67;;
18653;SDS011;9456;47.824;16.228;2023-02-11T08:52:25;15.33;;;9.50;;
18653;SDS011;9456;47.824;16.228;2023-02-11T08:54:54;18.93;;;11.33;;
18653;SDS011;9456;47.824;16.228;2023-02-11T08:57:23;14.43;;;10.13;;
18653;SDS011;9456;47.824;16.228;2023-02-11T09:05:17;13.17;;;8.93;;
18653;SDS011;9456;47.824;16.228;2023-02-11T09:07:46;16.07;;;9.53;;
18653;SDS011;9456;47.824;16.228;2023-02-11T09:10:15;19.60;;;10.03;;
18653;SDS011;9456;47.824;16.228;2023-02-11T09:12:44;14.27;;;10.07;;
18653;SDS011;9456;47.824;16.228;2023-02-11T09:15:13;16.03;;;9.87;;
18653;SDS011;9456;47.824;16.228;2023-02-11T09:17:42;17.17;;;9.43;;
18653;SDS011;9456;47.824;16.228;2023-02-11T09:20:11;32.53;;;17.40;;
18653;SDS011;9456;47.824;16.228;2023-02-11T09:22:40;14.77;;;9.87;;
18653;SDS011;9456;47.824;16.228;2023-02-11T09:25:09;17.37;;;10.60;;
18653;SDS011;9456;47.824;16.228;2023-02-11T09:27:38;18.93;;;11.33;;
18653;SDS011;9456;47.824;16.228;2023-02-11T09:30:09;17.47;;;10.57;;
18653;SDS011;9456;47.824;16.228;2023-02-11T09:32:38;29.63;;;17.17;;
18653;SDS011;9456;47.824;16.228;2023-02-11T09:35:08;15.07;;;11.73;;
18653;SDS011;9456;47.824;16.228;2023-02-11T09:37:37;21.03;;;12.90;;
18653;SDS011;9456;47.824;16.228;2023-02-11T09:40:06;18.00;;;12.70;;
18653;SDS011;9456;47.824;16.228;2023-02-11T09:42:38;22.50;;;12.33;;
18653;SDS011;9456;47.824;16.228;2023-02-11T09:45:11;22.50;;;13.13;;
18653;SDS011;9456;47.824;16.228;2023-02-11T09:47:42;19.00;;;12.97;;
18653;SDS011;9456;47.824;16.228;2023-02-11T09:50:12;22.13;;;13.13;;
18653;SDS011;9456;47.824;16.228;2023-02-11T09:52:42;33.77;;;21.73;;
18653;SDS011;9456;47.824;16.228;2023-02-11T09:55:14;19.97;;;14.20;;
18653;SDS011;9456;47.824;16.228;2023-02-11T09:57:42;23.60;;;14.57;;
18653;SDS011;9456;47.824;16.228;2023-02-11T10:00:19;29.33;;;18.33;;
18653;SDS011;9456;47.824;16.228;2023-02-11T10:03:02;27.60;;;15.57;;
18653;SDS011;9456;47.824;16.228;2023-02-11T10:06:10;24.13;;;15.23;;
18653;SDS011;9456;47.824;16.228;2023-02-11T10:09:00;23.20;;;14.27;;
18653;SDS011;9456;47.824;16.228;2023-02-11T10:11:30;19.43;;;14.57;;
18653;SDS011;9456;47.824;16.228;2023-02-11T10:14:03;22.17;;;14.83;;
18653;SDS011;9456;47.824;16.228;2023-02-11T10:16:36;25.00;;;15.47;;
18653;SDS011;9456;47.824;16.228;2023-02-11T10:19:11;26.03;;;15.93;;
18653;SDS011;9456;47.824;16.228;2023-02-11T10:21:49;24.53;;;15.67;;
18653;SDS011;9456;47.824;16.228;2023-02-11T10:24:21;22.93;;;16.20;;
18653;SDS011;9456;47.824;16.228;2023-02-11T10:26:50;27.67;;;17.03;;
18653;SDS011;9456;47.824;16.228;2023-02-11T10:29:24;23.57;;;17.23;;
18653;SDS011;9456;47.824;16.228;2023-02-11T10:31:58;29.47;;;17.10;;
18653;SDS011;9456;47.824;16.228;2023-02-11T10:34:28;31.63;;;19.73;;
18653;SDS011;9456;47.824;16.228;2023-02-11T10:36:57;25.83;;;18.87;;
18653;SDS011;9456;47.824;16.228;2023-02-11T10:39:26;27.60;;;16.23;;
18653;SDS011;9456;47.824;16.228;2023-02-11T10:41:56;29.37;;;21.33;;
18653;SDS011;9456;47.824;16.228;2023-02-11T10:44:26;25.87;;;16.23;;
18653;SDS011;9456;47.824;16.228;2023-02-11T10:46:53;22.70;;;15.53;;
18653;SDS011;9456;47.824;16.228;2023-02-11T10:49:39;26.77;;;17.57;;
18653;SDS011;9456;47.824;16.228;2023-02-11T10:52:14;21.43;;;15.53;;
18653;SDS011;9456;47.824;16.228;2023-02-11T10:54:57;23.50;;;15.73;;
18653;SDS011;9456;47.824;16.228;2023-02-11T10:57:31;20.10;;;15.30;;
18653;SDS011;9456;47.824;16.228;2023-02-11T11:00:04;21.67;;;15.10;;
18653;SDS011;9456;47.824;16.228;2023-02-11T11:02:37;22.13;;;15.67;;
18653;SDS011;9456;47.824;16.228;2023-02-11T11:05:17;24.80;;;15.43;;
18653;SDS011;9456;47.824;16.228;2023-02-11T11:07:52;23.13;;;14.17;;
18653;SDS011;9456;47.824;16.228;2023-02-11T11:10:34;20.70;;;15.03;;
18653;SDS011;9456;47.824;16.228;2023-02-11T11:13:03;23.03;;;15.03;;
18653;SDS011;9456;47.824;16.228;2023-02-11T11:15:34;31.50;;;16.17;;
18653;SDS011;9456;47.824;16.228;2023-02-11T11:18:12;21.67;;;14.57;;
18653;SDS011;9456;47.824;16.228;2023-02-11T11:20:43;27.27;;;15.37;;
18653;SDS011;9456;47.824;16.228;2023-02-11T11:23:16;26.13;;;16.07;;
18653;SDS011;9456;47.824;16.228;2023-02-11T11:25:44;25.37;;;15.77;;
18653;SDS011;9456;47.824;16.228;2023-02-11T11:28:21;21.47;;;14.90;;
18653;SDS011;9456;47.824;16.228;2023-02-11T11:30:49;18.97;;;13.00;;
18653;SDS011;9456;47.824;16.228;2023-02-11T11:33:20;19.83;;;13.50;;
18653;SDS011;9456;47.824;16.228;2023-02-11T11:35:58;27.10;;;17.10;;
18653;SDS011;9456;47.824;16.228;2023-02-11T11:38:27;29.97;;;17.23;;
18653;SDS011;9456;47.824;16.228;2023-02-11T11:41:15;27.47;;;16.67;;
18653;SDS011;9456;47.824;16.228;2023-02-11T11:43:53;24.97;;;15.83;;
18653;SDS011;9456;47.824;16.228;2023-02-11T11:46:26;24.17;;;15.90;;
18653;SDS011;9456;47.824;16.228;2023-02-11T11:48:57;23.87;;;15.60;;
18653;SDS011;9456;47.824;16.228;2023-02-11T11:51:29;25.23;;;16.17;;
18653;SDS011;9456;47.824;16.228;2023-02-11T11:53:59;22.93;;;14.40;;
18653;SDS011;9456;47.824;16.228;2023-02-11T11:56:27;27.57;;;15.03;;
18653;SDS011;9456;47.824;16.228;2023-02-11T11:58:57;24.20;;;14.40;;
18653;SDS011;9456;47.824;16.228;2023-02-11T12:01:29;21.00;;;12.53;;
18653;SDS011;9456;47.824;16.228;2023-02-11T12:04:02;20.13;;;13.33;;
18653;SDS011;9456;47.824;16.228;2023-02-11T12:06:45;21.20;;;11.90;;
18653;SDS011;9456;47.824;16.228;2023-02-11T12:09:17;19.63;;;12.77;;
18653;SDS011;9456;47.824;16.228;2023-02-11T12:14:54;18.03;;;11.43;;
18653;SDS011;9456;47.824;16.228;2023-02-11T12:17:28;17.40;;;12.07;;
18653;SDS011;9456;47.824;16.228;2023-02-11T12:20:12;4.13;;;3.70;;
18653;SDS011;9456;47.824;16.228;2023-02-11T12:22:47;4.47;;;3.10;;
18653;SDS011;9456;47.824;16.228;2023-02-11T12:25:26;5.27;;;3.57;;
18653;SDS011;9456;47.824;16.228;2023-02-11T12:27:58;4.17;;;3.37;;
18653;SDS011;9456;47.824;16.228;2023-02-11T12:30:34;3.93;;;3.47;;
18653;SDS011;9456;47.824;16.228;2023-02-11T12:33:09;4.40;;;3.47;;
18653;SDS011;9456;47.824;16.228;2023-02-11T12:35:39;4.83;;;3.60;;
18653;SDS011;9456;47.824;16.228;2023-02-11T12:38:19;5.37;;;3.60;;
18653;SDS011;9456;47.824;16.228;2023-02-11T12:40:55;4.60;;;3.40;;
18653;SDS011;9456;47.824;16.228;2023-02-11T12:43:26;4.10;;;3.10;;
18653;SDS011;9456;47.824;16.228;2023-02-11T12:45:57;4.50;;;3.70;;
18653;SDS011;9456;47.824;16.228;2023-02-11T12:51:54;6.53;;;3.17;;
18653;SDS011;9456;47.824;16.228;2023-02-11T12:54:27;4.30;;;3.10;;
18653;SDS011;9456;47.824;16.228;2023-02-11T12:56:58;4.97;;;3.23;;
18653;SDS011;9456;47.824;16.228;2023-02-11T12:59:37;4.40;;;3.10;;
18653;SDS011;9456;47.824;16.228;2023-02-11T13:02:10;3.53;;;2.63;;
18653;SDS011;9456;47.824;16.228;2023-02-11T13:04:39;3.93;;;2.90;;
18653;SDS011;9456;47.824;16.228;2023-02-11T13:07:10;4.27;;;3.20;;
18653;SDS011;9456;47.824;16.228;2023-02-11T13:09:42;4.73;;;2.77;;
18653;SDS011;9456;47.824;16.228;2023-02-11T13:12:12;4.00;;;3.00;;
18653;SDS011;9456;47.824;16.228;2023-02-11T13:15:00;9.50;;;4.73;;
18653;SDS011;9456;47.824;16.228;2023-02-11T13:17:29;6.53;;;2.90;;
18653;SDS011;9456;47.824;16.228;2023-02-11T13:19:58;3.33;;;2.67;;
18653;SDS011;9456;47.824;16.228;2023-02-11T13:22:28;4.50;;;3.03;;
18653;SDS011;9456;47.824;16.228;2023-02-11T13:24:58;4.37;;;3.10;;
18653;SDS011;9456;47.824;16.228;2023-02-11T13:33:16;3.27;;;2.97;;
18653;SDS011;9456;47.824;16.228;2023-02-11T13:38:54;4.27;;;3.00;;
18653;SDS011;9456;47.824;16.228;2023-02-11T13:41:30;11.30;;;4.53;;
18653;SDS011;9456;47.824;16.228;2023-02-11T13:44:28;6.43;;;4.07;;
18653;SDS011;9456;47.824;16.228;2023-02-11T13:46:58;20.93;;;12.00;;
18653;SDS011;9456;47.824;16.228;2023-02-11T13:49:32;7.20;;;4.90;;
18653;SDS011;9456;47.824;16.228;2023-02-11T13:52:02;5.53;;;3.67;;
18653;SDS011;9456;47.824;16.228;2023-02-11T13:54:33;3.47;;;2.83;;
18653;SDS011;9456;47.824;16.228;2023-02-11T14:00:05;3.87;;;3.30;;
18653;SDS011;9456;47.824;16.228;2023-02-11T14:06:12;3.63;;;2.17;;
18653;SDS011;9456;47.824;16.228;2023-02-11T14:15:27;3.83;;;2.10;;
18653;SDS011;9456;47.824;16.228;2023-02-11T14:17:56;3.23;;;2.13;;
18653;SDS011;9456;47.824;16.228;2023-02-11T14:20:33;4.83;;;1.93;;
18653;SDS011;9456;47.824;16.228;2023-02-11T14:23:03;2.67;;;2.47;;
18653;SDS011;9456;47.824;16.228;2023-02-11T14:25:32;2.47;;;2.20;;
18653;SDS011;9456;47.824;16.228;2023-02-11T14:28:02;1.90;;;1.70;;
18653;SDS011;9456;47.824;16.228;2023-02-11T14:39:27;2.20;;;2.00;;
18653;SDS011;9456;47.824;16.228;2023-02-11T14:41:57;3.27;;;2.37;;
18653;SDS011;9456;47.824;16.228;2023-02-11T14:44:29;2.60;;;2.17;;
18653;SDS011;9456;47.824;16.228;2023-02-11T14:46:57;4.90;;;2.10;;
18653;SDS011;9456;47.824;16.228;2023-02-11T14:49:27;2.30;;;2.10;;
18653;SDS011;9456;47.824;16.228;2023-02-11T14:51:56;1.60;;;1.50;;
18653;SDS011;9456;47.824;16.228;2023-02-11T14:54:25;2.10;;;1.90;;
18653;SDS011;9456;47.824;16.228;2023-02-11T14:57:08;3.83;;;2.20;;
18653;SDS011;9456;47.824;16.228;2023-02-11T14:59:37;4.30;;;2.20;;
18653;SDS011;9456;47.824;16.228;2023-02-11T15:02:20;32.93;;;25.40;;
18653;SDS011;9456;47.824;16.228;2023-02-11T15:04:49;14.37;;;11.80;;
18653;SDS011;9456;47.824;16.228;2023-02-11T15:07:18;8.00;;;5.60;;
18653;SDS011;9456;47.824;16.228;2023-02-11T15:09:48;7.73;;;6.23;;
18653;SDS011;9456;47.824;16.228;2023-02-11T15:12:17;4.17;;;3.77;;
18653;SDS011;9456;47.824;16.228;2023-02-11T15:22:59;3.10;;;2.60;;
18653;SDS011;9456;47.824;16.228;2023-02-11T15:25:28;4.23;;;2.90;;
18653;SDS011;9456;47.824;16.228;2023-02-11T15:27:57;3.37;;;2.80;;
18653;SDS011;9456;47.824;16.228;2023-02-11T15:30:27;2.93;;;2.50;;
18653;SDS011;9456;47.824;16.228;2023-02-11T15:32:57;2.83;;;2.47;;
18653;SDS011;9456;47.824;16.228;2023-02-11T15:35:27;2.97;;;2.63;;
18653;SDS011;9456;47.824;16.228;2023-02-11T15:37:56;2.60;;;2.40;;
18653;SDS011;9456;47.824;16.228;2023-02-11T15:40:25;5.50;;;3.10;;
18653;SDS011;9456;47.824;16.228;2023-02-11T15:43:00;3.60;;;3.07;;
18653;SDS011;9456;47.824;16.228;2023-02-11T15:45:31;5.23;;;3.23;;
18653;SDS011;9456;47.824;16.228;2023-02-11T15:48:05;4.60;;;3.57;;
18653;SDS011;9456;47.824;16.228;2023-02-11T15:50:34;4.77;;;3.60;;
18653;SDS011;9456;47.824;16.228;2023-02-11T15:53:03;7.17;;;5.07;;
18653;SDS011;9456;47.824;16.228;2023-02-11T15:55:32;10.63;;;7.23;;
18653;SDS011;9456;47.824;16.228;2023-02-11T15:58:01;8.90;;;5.80;;
18653;SDS011;9456;47.824;16.228;2023-02-11T16:00:32;4.77;;;3.63;;
18653;SDS011;9456;47.824;16.228;2023-02-11T16:03:00;6.07;;;4.17;;
18653;SDS011;9456;47.824;16.228;2023-02-11T16:05:34;19.20;;;11.83;;
18653;SDS011;9456;47.824;16.228;2023-02-11T16:08:16;11.73;;;8.23;;
18653;SDS011;9456;47.824;16.228;2023-02-11T16:10:56;12.50;;;7.10;;
18653;SDS011;9456;47.824;16.228;2023-02-11T16:13:24;6.80;;;4.53;;